Terminal Aerodrome Forecast
Issued by NWS Wilmington, OH

Current Version | Previous Version | Text Only | Print | Product List | Glossary Off
Versions: 1 2 3 4 5 6 7 8 9 10 11 12 13 14

000
FTUS41 KILN 282300
TAFDAY
TAF
KDAY 282334Z 2900/2924 26010KT P6SM SCT100 BKN200
     FM290800 25007KT P6SM SCT200
     FM291400 26012KT P6SM SCT035
     FM291700 27013G23KT P6SM BKN035=

USA.gov is the U.S. government's official web portal to all federal, state and local government web resources and services.